KCNC

Chariton Municipal Airport

Chariton, Iowa, USA
METAR KCNC 220435Z AUTO 12016KT 10SM CLR M08/M10 A2998 RMK AO2
Observed Flight Rules
Jan-22 @ 04:35 UTC (25 minutes ago) Visual Flight Rules
Wind Visibility Clouds
120° at 16 knots 10 miles
  • Clear skies
Temperatures Readings
Current -8°C / 18°F
Dewpoint -10°C / 14°F
Humidity 86%
Altimeter 29.98" Hg
Pressure 1015.22 hPa
Elevation 320
METAR KCNC 220435Z AUTO 12016KT 10SM CLR M08/M10 A2998 RMK AO2
Observed Flight Rules
Jan-22 @ 04:35 UTC
(25 minutes ago)
VFR
Wind Visibility
120° at 16 knots 10 miles
Clouds
  • Clear skies
Temperature Dewpoint
-8°C / 18°F -10°C / 14°F
Humidity Altimeter Pressure
86% 29.98" Hg 1015.22 hPa